createdAt,value
2023-05-19T00:00:41.992Z,963.2
2023-05-19T00:02:25.699Z,963.7
2023-05-19T00:04:09.388Z,962.1
2023-05-19T00:05:53.088Z,961.1
2023-05-19T00:07:36.812Z,958
2023-05-19T00:09:20.494Z,957.2
2023-05-19T00:11:04.211Z,960.2
2023-05-19T00:12:47.902Z,961.1
2023-05-19T00:14:31.668Z,960.4
2023-05-19T00:16:15.334Z,961.2
2023-05-19T00:17:59.011Z,959
2023-05-19T00:19:42.717Z,955.1
2023-05-19T00:21:26.434Z,956
2023-05-19T00:23:10.130Z,952.2
2023-05-19T00:31:48.653Z,933
2023-05-19T00:33:32.337Z,931.5
2023-05-19T00:35:16.032Z,930.7
2023-05-19T00:36:59.751Z,929.8
2023-05-19T00:38:43.424Z,928.1
2023-05-19T00:40:27.130Z,927.2
2023-05-19T00:42:10.835Z,926.2
2023-05-19T00:43:54.555Z,923.2
2023-05-19T00:45:38.267Z,918.6
2023-05-19T00:47:21.963Z,914.6
2023-05-19T00:49:05.666Z,913.5
2023-05-19T00:50:49.360Z,909.8
2023-05-19T00:52:33.075Z,911.1
2023-05-19T00:54:16.759Z,909.9
2023-05-19T00:56:00.466Z,907.7
2023-05-19T00:57:44.183Z,903.9
2023-05-19T00:59:27.870Z,901
2023-05-19T01:01:11.561Z,899.4
2023-05-19T01:02:55.272Z,898.8
2023-05-19T01:04:38.988Z,893.4
2023-05-19T01:06:22.672Z,891.9
2023-05-19T01:08:06.377Z,886.1
2023-05-19T01:09:50.080Z,881.8
2023-05-19T01:11:33.783Z,883.3
2023-05-19T01:13:17.489Z,879.4
2023-05-19T01:15:01.192Z,872
2023-05-19T01:16:44.876Z,871.9
2023-05-19T01:18:28.587Z,873.2
2023-05-19T01:20:12.327Z,868.2
2023-05-19T01:21:55.979Z,868.5
2023-05-19T01:23:39.678Z,868.5
2023-05-19T01:25:23.388Z,866
2023-05-19T01:27:07.084Z,861.6
2023-05-19T01:28:50.779Z,860.2
2023-05-19T01:30:34.511Z,861.5
2023-05-19T01:32:18.225Z,857.5
2023-05-19T01:34:01.890Z,854.3
2023-05-19T01:35:45.601Z,854.2
2023-05-19T01:37:29.300Z,851.5
2023-05-19T01:39:13.002Z,847.8
2023-05-19T01:40:56.708Z,845.3
2023-05-19T01:42:40.418Z,843.7
2023-05-19T01:44:24.113Z,841.5
2023-05-19T01:46:07.809Z,837.4
2023-05-19T01:47:51.527Z,835.9
2023-05-19T01:49:35.210Z,833.4
2023-05-19T01:51:18.907Z,831.7
2023-05-19T01:53:02.613Z,829
2023-05-19T01:54:46.307Z,824.5
2023-05-19T01:56:30.022Z,821.6
2023-05-19T01:58:13.748Z,820.5
2023-05-19T01:59:57.434Z,817.3
2023-05-19T02:01:41.131Z,815.4
2023-05-19T02:03:24.832Z,811.1
2023-05-19T02:05:08.543Z,810.2
2023-05-19T02:06:52.232Z,807.9
2023-05-19T02:08:35.931Z,808.5
2023-05-19T02:10:19.622Z,809.4
2023-05-19T02:12:03.345Z,809.5
2023-05-19T02:13:47.035Z,809.3
2023-05-19T02:15:30.743Z,806.6
2023-05-19T02:17:14.439Z,806.4
2023-05-19T02:18:58.133Z,805.8
2023-05-19T02:20:41.844Z,805.6
2023-05-19T02:22:25.568Z,803.7
2023-05-19T02:24:09.263Z,800.2
2023-05-19T02:25:52.991Z,798.1
2023-05-19T02:27:36.657Z,798.4
2023-05-19T02:29:20.356Z,793.7
2023-05-19T02:31:04.051Z,791.7
2023-05-19T02:32:47.764Z,788.7
2023-05-19T02:34:31.468Z,786.9
2023-05-19T02:36:15.147Z,786.6
2023-05-19T02:37:58.866Z,783.9
2023-05-19T02:39:42.564Z,782
2023-05-19T02:41:26.272Z,778.2
2023-05-19T02:43:09.990Z,776.5
2023-05-19T02:44:53.684Z,777.6
2023-05-19T02:46:37.388Z,774.9
2023-05-19T02:48:21.086Z,770.7
2023-05-19T02:50:04.788Z,771.8
2023-05-19T02:51:48.466Z,773
2023-05-19T02:53:32.189Z,772.2
2023-05-19T02:55:15.901Z,765.9
2023-05-19T02:56:59.595Z,761.8
2023-05-19T02:58:43.308Z,758.8
2023-05-19T03:00:26.980Z,754.2
2023-05-19T03:02:10.677Z,752.5
2023-05-19T03:03:54.388Z,752.4
2023-05-19T03:05:38.081Z,751.5
2023-05-19T03:07:21.799Z,751.7
2023-05-19T03:09:05.543Z,753.8
2023-05-19T03:10:49.201Z,751.2
2023-05-19T03:12:32.910Z,749.4
2023-05-19T03:14:16.588Z,747.2
2023-05-19T03:16:00.309Z,746.9
2023-05-19T03:17:44.002Z,747.6
2023-05-19T03:19:27.730Z,743.8
2023-05-19T03:21:11.395Z,741.1
2023-05-19T03:22:55.112Z,738.2
2023-05-19T03:24:38.844Z,735.1
2023-05-19T03:26:22.582Z,733.9
2023-05-19T03:28:06.219Z,730.5
2023-05-19T03:29:49.925Z,726.6
2023-05-19T03:31:33.615Z,728.7
2023-05-19T03:33:17.346Z,728.4
2023-05-19T03:35:01.034Z,724.5
2023-05-19T03:36:44.724Z,724.2
2023-05-19T03:38:28.465Z,723
2023-05-19T03:40:12.142Z,724.6
2023-05-19T03:41:55.845Z,722.9
2023-05-19T03:43:39.543Z,719.2
2023-05-19T03:45:23.232Z,720.6
2023-05-19T03:47:06.954Z,717.9
2023-05-19T03:48:50.639Z,715.4
2023-05-19T03:50:34.344Z,713.7
2023-05-19T03:52:18.053Z,711.7
2023-05-19T03:54:01.741Z,711.1
2023-05-19T03:55:45.453Z,709.8
2023-05-19T03:57:29.155Z,714.4
2023-05-19T03:59:12.865Z,714
2023-05-19T04:00:56.565Z,711.4
2023-05-19T04:02:40.272Z,711.9
2023-05-19T04:04:23.965Z,709.5
2023-05-19T04:06:07.662Z,705.5
2023-05-19T04:07:51.365Z,705
2023-05-19T04:09:35.072Z,703.7
2023-05-19T04:11:18.787Z,703.8
2023-05-19T04:13:02.505Z,703.1
2023-05-19T04:14:46.178Z,701.1
2023-05-19T04:16:29.879Z,698.8
2023-05-19T04:18:13.600Z,699.9
2023-05-19T04:19:57.287Z,698
2023-05-19T04:21:40.977Z,691.5
2023-05-19T04:23:24.710Z,684.9
2023-05-19T04:25:08.410Z,683.1
2023-05-19T04:26:52.172Z,683.2
2023-05-19T04:28:35.803Z,687.1
2023-05-19T04:30:19.489Z,687.1
2023-05-19T04:32:03.214Z,686.9
2023-05-19T04:33:46.909Z,685.8
2023-05-19T04:35:30.592Z,685.7
2023-05-19T04:37:14.310Z,686.9
2023-05-19T04:38:58.019Z,683.2
2023-05-19T04:40:41.733Z,680.5
2023-05-19T04:42:25.413Z,678.2
2023-05-19T04:44:09.111Z,678.4
2023-05-19T04:45:52.829Z,678
2023-05-19T04:47:36.533Z,677
2023-05-19T04:49:20.249Z,677.1
2023-05-19T04:51:03.942Z,674.9
2023-05-19T04:52:47.634Z,674.6
2023-05-19T04:54:31.348Z,675.1
2023-05-19T04:56:15.074Z,674.4
2023-05-19T04:57:58.773Z,674.9
2023-05-19T04:59:42.448Z,674.4
2023-05-19T05:01:26.137Z,671.3
2023-05-19T05:03:09.866Z,672
2023-05-19T05:04:53.556Z,670.4
2023-05-19T05:06:37.247Z,669.8
2023-05-19T05:08:20.948Z,669.8
2023-05-19T05:10:04.642Z,667
2023-05-19T05:11:48.361Z,666.7
2023-05-19T05:15:15.807Z,667
2023-05-19T05:16:59.466Z,667.8
2023-05-19T05:18:43.176Z,666.2
2023-05-19T05:20:26.859Z,667.7
2023-05-19T05:22:10.557Z,667.6
2023-05-19T05:23:54.292Z,665.4
2023-05-19T05:25:37.979Z,664.2
2023-05-19T05:27:21.689Z,662.3
2023-05-19T05:29:05.367Z,661.3
2023-05-19T05:30:49.069Z,657.9
2023-05-19T05:32:32.785Z,657.7
2023-05-19T05:34:16.470Z,657.5
2023-05-19T05:36:00.179Z,655.9
2023-05-19T05:37:43.888Z,655.6
2023-05-19T05:39:27.586Z,656.6
2023-05-19T05:41:11.336Z,658.5
2023-05-19T05:42:54.988Z,658.4
2023-05-19T05:44:38.690Z,658.5
2023-05-19T05:46:22.410Z,657.3
2023-05-19T05:48:06.130Z,656
2023-05-19T05:49:49.809Z,652.9
2023-05-19T05:51:33.482Z,648.5
2023-05-19T05:53:17.203Z,649.4
2023-05-19T05:55:00.897Z,648.5
2023-05-19T05:56:44.677Z,647.1
2023-05-19T05:58:28.359Z,649.6
2023-05-19T06:00:12.069Z,651.6
2023-05-19T06:01:55.708Z,647.4
2023-05-19T06:03:39.424Z,642
2023-05-19T06:05:23.193Z,642.1
2023-05-19T06:07:06.807Z,640.2
2023-05-19T06:08:50.564Z,639.5
2023-05-19T06:10:34.241Z,637.5
2023-05-19T06:12:17.910Z,636
2023-05-19T06:14:01.661Z,633.2
2023-05-19T06:15:45.308Z,630.9
2023-05-19T06:17:29.116Z,628.2
2023-05-19T06:19:12.710Z,628.2
2023-05-19T06:20:56.422Z,626.8
2023-05-19T06:22:40.153Z,628.4
2023-05-19T06:24:23.822Z,625.7
2023-05-19T06:26:07.536Z,622.9
2023-05-19T06:27:51.262Z,622.4
2023-05-19T06:29:34.978Z,621.9
2023-05-19T06:31:18.636Z,621.8
2023-05-19T06:33:02.348Z,621.7
2023-05-19T06:34:46.125Z,620.1
2023-05-19T06:36:29.752Z,619.8
2023-05-19T06:38:13.459Z,617.2
2023-05-19T06:39:57.162Z,617.1
2023-05-19T06:41:40.960Z,618
2023-05-19T06:43:24.619Z,614.9
2023-05-19T06:45:08.257Z,613.9
2023-05-19T06:46:51.982Z,614.3
2023-05-19T06:48:35.667Z,614.3
2023-05-19T06:50:19.372Z,613.1
2023-05-19T06:52:03.061Z,615
2023-05-19T06:53:46.812Z,618.3
2023-05-19T06:55:30.463Z,618.2
2023-05-19T06:57:14.174Z,620
2023-05-19T06:58:57.877Z,621.5
2023-05-19T07:00:41.587Z,620.5
2023-05-19T07:02:25.294Z,617.2
2023-05-19T07:04:08.998Z,613.9
2023-05-19T07:05:52.703Z,614.6
2023-05-19T07:07:36.386Z,615.1
2023-05-19T07:09:20.099Z,614.2
2023-05-19T07:11:03.811Z,615
2023-05-19T07:12:47.499Z,619.7
2023-05-19T07:14:31.210Z,622.4
2023-05-19T07:16:14.909Z,622.1
2023-05-19T07:17:58.627Z,621.2
2023-05-19T07:19:42.316Z,619.6
2023-05-19T07:21:26.020Z,617.8
2023-05-19T07:23:09.877Z,619.9
2023-05-19T07:24:53.443Z,625.5
2023-05-19T07:26:37.276Z,629.2
2023-05-19T07:28:21.004Z,633.3
2023-05-19T07:30:04.546Z,638.8
2023-05-19T07:31:48.469Z,645.9
2023-05-19T07:33:32.057Z,648.4
2023-05-19T07:35:15.657Z,649.6
2023-05-19T07:36:59.376Z,653.1
2023-05-19T07:38:43.153Z,660.3
2023-05-19T07:40:26.809Z,674.5
2023-05-19T07:42:10.472Z,702.1
2023-05-19T07:43:54.283Z,713
2023-05-19T07:45:37.871Z,711.9
2023-05-19T07:47:21.666Z,696.8
2023-05-19T07:49:05.379Z,683.6
2023-05-19T07:50:49.210Z,684.8
2023-05-19T07:52:32.784Z,681.9
2023-05-19T07:54:16.393Z,671.4
2023-05-19T07:56:00.152Z,667.7
2023-05-19T07:57:43.811Z,668.3
2023-05-19T07:59:27.556Z,670.1
2023-05-19T08:01:11.222Z,671.6
2023-05-19T08:04:38.624Z,670.6
2023-05-19T08:06:22.320Z,672.5
2023-05-19T08:08:06.043Z,671.5
2023-05-19T08:09:49.772Z,670.1
2023-05-19T08:11:33.490Z,673
2023-05-19T08:13:17.153Z,672.6
2023-05-19T08:15:00.861Z,670.2
2023-05-19T08:16:44.561Z,670.7
2023-05-19T08:18:28.283Z,669
2023-05-19T08:20:12.092Z,668.4
2023-05-19T08:21:55.668Z,667.8
2023-05-19T08:23:39.365Z,670
2023-05-19T08:25:23.078Z,667.5
2023-05-19T08:27:06.782Z,667.1
2023-05-19T08:28:50.498Z,668.9
2023-05-19T08:30:34.188Z,664.6
2023-05-19T08:32:17.996Z,665.4
2023-05-19T08:34:01.662Z,665.1
2023-05-19T08:35:45.331Z,663.5
2023-05-19T08:37:29.009Z,664.9
2023-05-19T08:39:12.760Z,663.4
2023-05-19T08:40:56.441Z,661.8
2023-05-19T08:42:40.155Z,657.2
2023-05-19T08:44:23.836Z,654.5
2023-05-19T08:46:07.527Z,651.2
2023-05-19T08:47:51.223Z,647.7
2023-05-19T08:49:34.955Z,645
2023-05-19T08:51:18.783Z,643.5
2023-05-19T08:53:02.488Z,639.9
2023-05-19T08:54:46.146Z,637.4
2023-05-19T08:56:29.889Z,637.4
2023-05-19T08:58:13.569Z,636.6
2023-05-19T08:59:57.371Z,635.8
2023-05-19T09:01:40.920Z,633.9
2023-05-19T09:03:24.532Z,632.1
2023-05-19T09:05:08.280Z,627.9
2023-05-19T09:06:52.133Z,625.3
2023-05-19T09:08:35.799Z,627.7
2023-05-19T09:10:19.524Z,628.8
2023-05-19T09:12:03.223Z,625.9
2023-05-19T09:13:46.903Z,626.4
2023-05-19T09:15:30.456Z,626.4
2023-05-19T09:17:14.253Z,621.7
2023-05-19T09:18:58.105Z,619.5
2023-05-19T09:20:41.814Z,618.2
2023-05-19T09:22:25.511Z,618.2
2023-05-19T09:24:09.207Z,617.6
2023-05-19T09:25:52.840Z,617.9
2023-05-19T09:27:36.599Z,615.7
2023-05-19T09:29:20.280Z,615.6
2023-05-19T09:31:03.967Z,615.9
2023-05-19T09:32:47.662Z,612.6
2023-05-19T09:34:31.238Z,613.1
2023-05-19T09:36:15.100Z,611.3
2023-05-19T09:37:58.729Z,608.6
2023-05-19T09:39:42.468Z,608.9
2023-05-19T09:41:26.298Z,610.5
2023-05-19T09:43:09.702Z,612.9
2023-05-19T09:44:53.570Z,614
2023-05-19T09:46:37.310Z,614.5
2023-05-19T09:48:21.016Z,615.7
2023-05-19T09:50:04.630Z,616.9
2023-05-19T09:51:48.267Z,616.9
2023-05-19T09:53:32.077Z,615.4
2023-05-19T09:55:15.720Z,612.3
2023-05-19T09:56:59.312Z,611.7
2023-05-19T09:58:43.150Z,612.7
2023-05-19T10:00:26.713Z,610.2
2023-05-19T10:02:10.581Z,608.1
2023-05-19T10:03:54.130Z,605.7
2023-05-19T10:05:37.858Z,605.3
2023-05-19T10:07:21.599Z,606.6
2023-05-19T10:09:05.403Z,608.6
2023-05-19T10:10:49.051Z,610.6
2023-05-19T10:12:32.793Z,614.4
2023-05-19T10:14:16.463Z,619.2
2023-05-19T10:16:00.250Z,627
2023-05-19T10:17:43.856Z,633.7
2023-05-19T10:19:27.626Z,643.7
2023-05-19T10:21:11.111Z,649.1
2023-05-19T10:22:55.067Z,651.7
2023-05-19T10:24:38.715Z,649.3
2023-05-19T10:26:22.215Z,648
2023-05-19T10:28:06.042Z,648.7
2023-05-19T10:29:49.682Z,645.8
2023-05-19T10:31:33.325Z,643.8
2023-05-19T10:33:17.033Z,640
2023-05-19T10:35:00.891Z,639.7
2023-05-19T10:36:44.631Z,639.8
2023-05-19T10:38:28.334Z,636.9
2023-05-19T10:40:11.856Z,632
2023-05-19T10:41:55.742Z,629.5
2023-05-19T10:43:39.270Z,623.3
2023-05-19T10:45:23.097Z,623
2023-05-19T10:47:06.788Z,620.1
2023-05-19T10:48:50.583Z,617.9
2023-05-19T10:50:34.229Z,616.9
2023-05-19T10:52:17.791Z,619.4
2023-05-19T10:54:01.597Z,618.7
2023-05-19T10:55:45.354Z,619.7
2023-05-19T10:57:29.050Z,619.1
2023-05-19T10:59:12.726Z,618
2023-05-19T11:00:56.470Z,618.1
2023-05-19T11:02:40.159Z,616.5
2023-05-19T11:04:23.704Z,614.7
2023-05-19T11:06:07.614Z,611.9
2023-05-19T11:07:51.183Z,608.6
2023-05-19T11:09:34.873Z,606.3
2023-05-19T11:11:18.517Z,605
2023-05-19T11:13:02.386Z,603.3
2023-05-19T11:14:46.099Z,600.9
2023-05-19T11:16:29.816Z,593.1
2023-05-19T11:18:13.437Z,588.8
2023-05-19T11:19:57.090Z,592.6
2023-05-19T11:21:40.827Z,595.7
2023-05-19T11:23:24.557Z,594.5
2023-05-19T11:25:08.330Z,593.7
2023-05-19T11:26:51.857Z,591.6
2023-05-19T11:28:35.677Z,589.7
2023-05-19T11:30:19.285Z,591.6
2023-05-19T11:32:03.098Z,593.4
2023-05-19T11:33:46.633Z,592.2
2023-05-19T11:35:30.348Z,590.7
2023-05-19T11:37:14.197Z,588.3
2023-05-19T11:38:57.954Z,585.6
2023-05-19T11:40:41.522Z,584.4
2023-05-19T11:42:25.183Z,580.2
2023-05-19T11:44:09.023Z,576.5
2023-05-19T11:45:52.612Z,573.6
2023-05-19T11:47:36.386Z,571.5
2023-05-19T11:49:19.966Z,573.4
2023-05-19T11:51:03.870Z,575.7
2023-05-19T11:52:47.481Z,575.6
2023-05-19T11:54:31.246Z,572.8
2023-05-19T11:56:15.077Z,568.9
2023-05-19T11:57:58.737Z,565.2
2023-05-19T11:59:42.375Z,564.3
2023-05-19T12:01:26.071Z,565.2
2023-05-19T12:03:09.622Z,562.1
2023-05-19T12:04:53.491Z,559.3
2023-05-19T12:06:37.202Z,557.4
2023-05-19T12:08:20.936Z,553.5
2023-05-19T12:10:04.546Z,549.9
2023-05-19T12:11:48.257Z,547
2023-05-19T12:13:32.000Z,548.7
2023-05-19T12:15:15.681Z,551.3
2023-05-19T12:16:59.435Z,555.1
2023-05-19T12:18:43.132Z,558.4
2023-05-19T12:20:26.819Z,559.8
2023-05-19T12:22:10.568Z,561.6
2023-05-19T12:23:54.061Z,564.4
2023-05-19T12:25:37.931Z,564.5
2023-05-19T12:27:21.638Z,561.3
2023-05-19T12:29:05.207Z,555.2
2023-05-19T12:30:49.060Z,549.1
2023-05-19T12:32:32.565Z,545.2
2023-05-19T12:34:16.488Z,540.7
2023-05-19T12:36:00.253Z,540.9
2023-05-19T12:37:43.696Z,542.1
2023-05-19T12:39:27.551Z,543.9
2023-05-19T12:41:11.079Z,544.2
2023-05-19T12:42:54.982Z,542.6
2023-05-19T12:44:38.742Z,541
2023-05-19T12:46:22.276Z,543
2023-05-19T12:48:05.930Z,541.1
2023-05-19T12:49:49.611Z,538.5
2023-05-19T12:51:33.440Z,538.5
2023-05-19T12:53:17.216Z,543.6
2023-05-19T12:55:00.999Z,546.8
2023-05-19T12:56:44.593Z,548.5
2023-05-19T12:58:28.366Z,548.5
2023-05-19T13:00:11.904Z,554.6
2023-05-19T13:01:55.577Z,555.3
2023-05-19T13:05:22.973Z,551.2
2023-05-19T13:07:06.643Z,550.7
2023-05-19T13:08:50.338Z,549.7
2023-05-19T13:10:34.064Z,547.5
2023-05-19T13:12:17.752Z,547.4
2023-05-19T13:14:01.441Z,543.6
2023-05-19T13:15:45.222Z,543.8
2023-05-19T13:17:28.899Z,547.1
2023-05-19T13:19:12.562Z,548.8
2023-05-19T13:20:56.307Z,548.1
2023-05-19T13:22:40.084Z,547.5
2023-05-19T13:24:23.640Z,546.8
2023-05-19T13:26:07.429Z,545.1
2023-05-19T13:27:51.235Z,542.7
2023-05-19T13:29:34.889Z,541.2
2023-05-19T13:31:18.461Z,539.3
2023-05-19T13:33:02.335Z,539
2023-05-19T13:34:46.002Z,544.3
2023-05-19T13:36:29.562Z,547.1
2023-05-19T13:38:13.260Z,548.6
2023-05-19T13:39:58.173Z,550.1
2023-05-19T13:41:40.886Z,549.6
2023-05-19T13:43:24.538Z,551.3
2023-05-19T13:45:08.182Z,554
2023-05-19T13:46:51.908Z,551.8
2023-05-19T13:48:35.476Z,552
2023-05-19T13:50:19.289Z,552.3
2023-05-19T13:52:02.882Z,555.6
2023-05-19T13:53:46.582Z,557.3
2023-05-19T13:55:30.301Z,561.4
2023-05-19T13:57:14.008Z,559.6
2023-05-19T13:58:57.901Z,559.7
2023-05-19T14:00:41.499Z,563.5
2023-05-19T14:02:25.231Z,565.8
2023-05-19T14:04:08.830Z,569.8
2023-05-19T14:05:52.586Z,570.5
2023-05-19T14:07:36.403Z,570.3
2023-05-19T14:09:20.205Z,570.2
2023-05-19T14:11:03.691Z,572.4
2023-05-19T14:12:47.541Z,572
2023-05-19T14:14:31.110Z,573.1
2023-05-19T14:16:14.904Z,573
2023-05-19T14:17:58.605Z,575.1
2023-05-19T14:19:42.326Z,579.2
2023-05-19T14:21:25.913Z,582.1
2023-05-19T14:23:09.686Z,584.7
2023-05-19T14:24:53.321Z,590.5
2023-05-19T14:26:37.083Z,590.2
2023-05-19T14:28:20.859Z,589.7
2023-05-19T14:30:04.565Z,589.3
2023-05-19T14:31:48.124Z,591.5
2023-05-19T14:33:31.960Z,597.5
2023-05-19T14:35:15.674Z,606.9
2023-05-19T14:36:59.338Z,610.3
2023-05-19T14:38:43.070Z,609
2023-05-19T14:40:26.704Z,611.3
2023-05-19T14:42:10.315Z,611.1
2023-05-19T14:43:54.180Z,610.4
2023-05-19T14:45:37.883Z,610.8
2023-05-19T14:47:21.575Z,611.7
2023-05-19T14:49:05.280Z,612.7
2023-05-19T14:50:48.867Z,613.6
2023-05-19T14:52:32.635Z,617.5
2023-05-19T14:54:16.420Z,618.9
2023-05-19T14:56:00.085Z,620.3
2023-05-19T14:57:43.801Z,621.9
2023-05-19T14:59:27.455Z,625.9
2023-05-19T15:01:11.099Z,627.5
2023-05-19T15:02:54.868Z,629.2
2023-05-19T15:04:38.521Z,628.9
2023-05-19T15:06:22.338Z,629.9
2023-05-19T15:08:05.879Z,632.5
2023-05-19T15:09:49.713Z,634.5
2023-05-19T15:11:33.259Z,633.7
2023-05-19T15:13:17.130Z,635.4
2023-05-19T15:16:44.498Z,638.9
2023-05-19T15:18:28.268Z,637.4
2023-05-19T15:20:11.757Z,639.4
2023-05-19T15:23:39.252Z,645.1
2023-05-19T15:25:22.880Z,647.1
2023-05-19T15:27:06.704Z,649
2023-05-19T15:28:50.487Z,651
2023-05-19T15:30:34.052Z,656
2023-05-19T15:32:17.774Z,656.2
2023-05-19T15:34:01.536Z,655.8
2023-05-19T15:35:45.316Z,658.8
2023-05-19T15:37:28.927Z,660.6
2023-05-19T15:39:12.540Z,663.3
2023-05-19T15:40:56.236Z,664.1
2023-05-19T15:42:40.085Z,678.2
2023-05-19T15:44:26.794Z,826.7
2023-05-19T15:46:07.510Z,823.6
2023-05-19T15:47:51.053Z,807.7
2023-05-19T15:49:34.913Z,809.1
2023-05-19T15:51:18.455Z,809
2023-05-19T15:53:02.148Z,811.3
2023-05-19T15:54:45.893Z,818.7
2023-05-19T15:56:29.564Z,824.8
2023-05-19T15:58:13.314Z,829.8
2023-05-19T15:59:57.034Z,829.4
2023-05-19T16:01:40.821Z,828.1
2023-05-19T16:03:24.538Z,826.7
2023-05-19T16:05:08.280Z,821.6
2023-05-19T16:06:51.950Z,825.1
2023-05-19T16:08:35.501Z,832.5
2023-05-19T16:10:19.307Z,839.2
2023-05-19T16:12:03.078Z,841.6
2023-05-19T16:13:46.801Z,836.5
2023-05-19T16:15:30.500Z,836.8
2023-05-19T16:17:14.269Z,834.2
2023-05-19T16:18:57.917Z,836.7
2023-05-19T16:20:41.487Z,836.8
2023-05-19T16:22:25.292Z,835.9
2023-05-19T16:24:08.908Z,834.1
2023-05-19T16:25:52.613Z,835.5
2023-05-19T16:27:36.431Z,838.9
2023-05-19T16:29:19.995Z,841.7
2023-05-19T16:31:03.652Z,847.2
2023-05-19T16:32:47.632Z,855.6
2023-05-19T16:34:31.244Z,858
2023-05-19T16:36:14.914Z,861.6
2023-05-19T16:37:58.614Z,873.1
2023-05-19T16:39:42.267Z,880
2023-05-19T16:41:25.983Z,873.4
2023-05-19T16:43:09.589Z,880.5
2023-05-19T16:44:53.450Z,883.2
2023-05-19T16:46:37.159Z,887
2023-05-19T16:48:20.951Z,892.5
2023-05-19T16:50:04.622Z,894.9
2023-05-19T16:51:48.225Z,894.9
2023-05-19T16:53:31.913Z,897.2
2023-05-19T16:55:15.572Z,903.1
2023-05-19T16:56:59.334Z,915.6
2023-05-19T16:58:43.153Z,918.6
2023-05-19T17:00:26.572Z,921.3
2023-05-19T17:02:10.288Z,924.8
2023-05-19T17:03:53.978Z,924.5
2023-05-19T17:05:37.671Z,928.9
2023-05-19T17:07:21.378Z,936.8
2023-05-19T17:09:05.089Z,942.1
2023-05-19T17:10:48.771Z,945.6
2023-05-19T17:12:32.481Z,947.4
2023-05-19T17:14:16.184Z,950.9
2023-05-19T17:15:59.886Z,959.2
2023-05-19T17:17:43.566Z,967
2023-05-19T17:19:27.289Z,975.9
2023-05-19T17:21:10.994Z,999
2023-05-19T17:22:54.795Z,992.7
2023-05-19T17:24:38.418Z,980.4
2023-05-19T17:26:22.219Z,976
2023-05-19T17:28:06.026Z,987.3
2023-05-19T17:29:49.530Z,1020.3
2023-05-19T17:31:33.221Z,1047.9
2023-05-19T17:33:16.957Z,1054.3
2023-05-19T17:35:00.771Z,1052.2
2023-05-19T17:36:44.456Z,1043.9
2023-05-19T17:38:28.020Z,1058.5
2023-05-19T17:40:11.801Z,1061.4
2023-05-19T17:41:55.585Z,991.4
2023-05-19T17:43:39.154Z,978.5
2023-05-19T17:45:22.951Z,968.9
2023-05-19T17:47:06.582Z,968
2023-05-19T17:48:50.349Z,973.7
2023-05-19T17:50:33.928Z,977.8
2023-05-19T17:52:17.809Z,978.3
2023-05-19T17:54:01.509Z,980.8
2023-05-19T17:55:45.196Z,979.4
2023-05-19T17:57:28.886Z,977.6
2023-05-19T17:59:12.656Z,977.2
2023-05-19T18:00:56.296Z,974.5
2023-05-19T18:02:39.841Z,970.2
2023-05-19T18:04:23.681Z,968.9
2023-05-19T18:06:07.474Z,960.3
2023-05-19T18:07:51.050Z,957.6
2023-05-19T18:09:34.769Z,953.2
2023-05-19T18:11:18.596Z,948.1
2023-05-19T18:13:02.149Z,943
2023-05-19T18:14:45.825Z,934.6
2023-05-19T18:16:29.448Z,929.3
2023-05-19T18:18:13.334Z,925.2
2023-05-19T18:19:57.065Z,917.5
2023-05-19T18:21:40.730Z,914.3
2023-05-19T18:23:24.460Z,908.6
2023-05-19T18:25:09.530Z,902.8
2023-05-19T18:32:02.947Z,891
2023-05-19T18:33:46.689Z,888.7
2023-05-19T18:35:30.332Z,884.4
2023-05-19T18:37:14.062Z,884.8
2023-05-19T18:38:57.711Z,884.6
2023-05-19T18:40:41.563Z,884.9
2023-05-19T18:42:25.230Z,886.3
2023-05-19T18:44:08.850Z,886.4
2023-05-19T18:45:52.565Z,888.7
2023-05-19T18:47:36.232Z,887.2
2023-05-19T18:49:19.877Z,884.8
2023-05-19T18:51:03.534Z,885.3
2023-05-19T18:52:47.273Z,888.6
2023-05-19T18:54:31.072Z,887.8
2023-05-19T18:56:14.774Z,887.4
2023-05-19T18:57:58.322Z,883.1
2023-05-19T18:59:42.187Z,880.1
2023-05-19T19:01:25.967Z,878.3
2023-05-19T19:03:09.440Z,881.6
2023-05-19T19:04:53.285Z,882.1
2023-05-19T19:06:36.984Z,882.3
2023-05-19T19:08:20.583Z,879.3
2023-05-19T19:10:04.406Z,879.3
2023-05-19T19:11:48.064Z,878
2023-05-19T19:13:31.732Z,883.2
2023-05-19T19:15:15.474Z,881.2
2023-05-19T19:16:59.042Z,882.3
2023-05-19T19:18:42.917Z,883.2
2023-05-19T19:20:26.456Z,882
2023-05-19T19:22:10.261Z,877.5
2023-05-19T19:23:53.824Z,880.2
2023-05-19T19:25:37.672Z,878.5
2023-05-19T19:27:21.403Z,874.1
2023-05-19T19:29:05.040Z,871.1
2023-05-19T19:30:48.681Z,869.7
2023-05-19T19:32:32.485Z,866.7
2023-05-19T19:34:16.221Z,868.3
2023-05-19T19:35:59.745Z,869.8
2023-05-19T19:37:43.626Z,869.1
2023-05-19T19:39:27.325Z,868.6
2023-05-19T19:41:10.869Z,867.6
2023-05-19T19:42:54.609Z,866.1
2023-05-19T19:44:38.431Z,865.6
2023-05-19T19:46:22.022Z,868.4
2023-05-19T19:48:05.861Z,872.2
2023-05-19T19:49:49.355Z,872.6
2023-05-19T19:51:33.230Z,872.2
2023-05-19T19:53:16.942Z,870.3
2023-05-19T19:55:00.642Z,863.2
2023-05-19T19:56:44.282Z,863.3
2023-05-19T19:58:28.169Z,862.9
2023-05-19T20:00:11.575Z,865.8
2023-05-19T20:01:55.446Z,868
2023-05-19T20:03:38.986Z,866.7
2023-05-19T20:05:22.858Z,865.6
2023-05-19T20:07:06.547Z,868.4
2023-05-19T20:08:50.276Z,867.1
2023-05-19T20:10:33.832Z,870.3
2023-05-19T20:12:17.693Z,872.2
2023-05-19T20:14:01.361Z,876.2
2023-05-19T20:15:45.051Z,885.2
2023-05-19T20:17:28.754Z,892.2
2023-05-19T20:19:12.444Z,901.3
2023-05-19T20:20:56.153Z,910.8
2023-05-19T20:22:39.897Z,917
2023-05-19T20:24:23.548Z,922.4
2023-05-19T20:26:07.101Z,919.2
2023-05-19T20:27:50.834Z,920.9
2023-05-19T20:29:34.505Z,926
2023-05-19T20:31:18.305Z,928.4
2023-05-19T20:33:01.975Z,933.6
2023-05-19T20:34:45.648Z,931.1
2023-05-19T20:36:29.465Z,931.2
2023-05-19T20:38:13.124Z,935.2
2023-05-19T20:39:56.852Z,937.8
2023-05-19T20:41:40.423Z,936.8
2023-05-19T20:43:24.283Z,937.9
2023-05-19T20:45:07.954Z,940.1
2023-05-19T20:46:51.692Z,941.2
2023-05-19T20:48:35.319Z,946.5
2023-05-19T20:50:18.917Z,950.8
2023-05-19T20:52:02.622Z,950.6
2023-05-19T20:53:46.337Z,953.6
2023-05-19T20:55:30.033Z,954
2023-05-19T20:57:13.755Z,954.8
2023-05-19T20:58:57.456Z,954
2023-05-19T21:00:41.159Z,949.2
2023-05-19T21:02:24.838Z,946.5
2023-05-19T21:04:08.541Z,947.8
2023-05-19T21:05:52.243Z,951.1
2023-05-19T21:07:35.957Z,952.1
2023-05-19T21:09:19.649Z,954.3
2023-05-19T21:11:03.365Z,957.7
2023-05-19T21:12:47.183Z,958.7
2023-05-19T21:14:30.842Z,961.6
2023-05-19T21:16:14.471Z,957.9
2023-05-19T21:17:58.274Z,959.9
2023-05-19T21:19:42.037Z,964.7
2023-05-19T21:21:25.716Z,970
2023-05-19T21:23:09.417Z,973.5
2023-05-19T21:24:53.182Z,978.5
2023-05-19T21:26:36.695Z,982.4
2023-05-19T21:28:20.569Z,986.5
2023-05-19T21:30:04.343Z,984.4
2023-05-19T21:31:47.915Z,980
2023-05-19T21:33:31.561Z,979.6
2023-05-19T21:35:15.320Z,988.4
2023-05-19T21:36:58.963Z,1000.1
2023-05-19T21:38:42.704Z,1013.2
2023-05-19T21:40:26.358Z,1024.9
2023-05-19T21:42:10.134Z,1033.8
2023-05-19T21:43:53.744Z,1043.8
2023-05-19T21:47:21.274Z,1046.4
2023-05-19T21:49:04.940Z,1047.3
2023-05-19T21:50:48.657Z,1050
2023-05-19T21:52:32.271Z,1049.4
2023-05-19T21:54:15.884Z,1043.9
2023-05-19T21:55:59.774Z,1043.3
2023-05-19T21:57:43.579Z,1046.5
2023-05-19T21:59:27.207Z,1049
2023-05-19T22:01:10.880Z,1052
2023-05-19T22:02:54.578Z,1050.8
2023-05-19T22:04:38.243Z,1049.5
2023-05-19T22:06:21.913Z,1050.9
2023-05-19T22:08:05.715Z,1049.8
2023-05-19T22:09:49.378Z,1046.7
2023-05-19T22:11:33.108Z,1046.7
2023-05-19T22:13:16.642Z,1045.2
2023-05-19T22:15:00.322Z,1046.2
2023-05-19T22:16:44.195Z,1047.6
2023-05-19T22:18:27.924Z,1048
2023-05-19T22:20:11.534Z,1048.8
2023-05-19T22:21:55.273Z,1046.3
2023-05-19T22:23:38.827Z,1047.3
2023-05-19T22:25:22.539Z,1047.8
2023-05-19T22:27:06.369Z,1042.7
2023-05-19T22:28:50.020Z,1036
2023-05-19T22:30:33.646Z,1027.3
2023-05-19T22:32:17.321Z,1024.4
2023-05-19T22:34:01.031Z,1021.2
2023-05-19T22:35:44.860Z,1016
2023-05-19T22:37:28.626Z,1008.6
2023-05-19T22:39:12.138Z,1006.1
2023-05-19T22:40:55.936Z,1002.6
2023-05-19T22:42:39.658Z,996.2
2023-05-19T22:44:23.378Z,992.9